Time,TemperatureF,DewpointF,PressureIn,WindDirection,WindDirectionDegrees,WindSpeedMPH,WindSpeedGustMPH,Humidity,HourlyPrecipIn,Conditions,Clouds,dailyrainin,SoftwareType,DateUTC
2013-09-15 00:00:00,47.5,45.9,30.18,NE,40,0.0,0.0,94,0.00,,,0.00,Wunderground v.1.15,2013-09-15 04:00:00,
2013-09-15 00:01:00,47.5,46.1,30.18,NE,40,0.0,0.0,95,0.00,,,0.00,Wunderground v.1.15,2013-09-15 04:01:00,
2013-09-15 00:02:00,47.5,46.1,30.18,NE,40,0.0,0.0,95,0.00,,,0.00,Wunderground v.1.15,2013-09-15 04:02:00,
2013-09-15 00:04:00,47.5,46.1,30.18,NE,40,0.0,0.0,95,0.00,,,0.00,Wunderground v.1.15,2013-09-15 04:04:00,
2013-09-15 00:06:00,47.5,46.1,30.18,NE,40,0.0,0.0,95,0.00,,,0.00,Wunderground v.1.15,2013-09-15 04:06:00,
2013-09-15 00:07:00,47.5,46.1,30.18,NE,40,0.0,0.0,95,0.00,,,0.00,Wunderground v.1.15,2013-09-15 04:07:00,
2013-09-15 00:12:00,47.5,46.1,30.18,NE,40,0.0,0.0,95,0.00,,,0.00,Wunderground v.1.15,2013-09-15 04:12:00,
2013-09-15 00:17:00,47.4,46.0,30.18,NE,40,0.0,0.0,95,0.00,,,0.00,Wunderground v.1.15,2013-09-15 04:17:00,
2013-09-15 00:19:00,47.4,46.0,30.18,NE,40,0.0,0.0,95,0.00,,,0.00,Wunderground v.1.15,2013-09-15 04:19:00,
2013-09-15 00:24:00,47.4,46.0,30.18,NE,40,0.0,0.0,95,0.00,,,0.00,Wunderground v.1.15,2013-09-15 04:24:00,
2013-09-15 00:29:00,47.3,45.9,30.18,NE,40,0.0,0.0,95,0.00,,,0.00,Wunderground v.1.15,2013-09-15 04:29:00,
2013-09-15 00:34:00,47.1,45.7,30.17,NE,40,0.0,0.0,95,0.00,,,0.00,Wunderground v.1.15,2013-09-15 04:34:00,
2013-09-15 00:40:00,47.0,45.6,30.17,NE,40,0.0,0.0,95,0.00,,,0.00,Wunderground v.1.15,2013-09-15 04:40:00,
2013-09-15 00:45:00,46.9,45.5,30.17,NE,40,0.0,0.0,95,0.00,,,0.00,Wunderground v.1.15,2013-09-15 04:45:00,
2013-09-15 00:51:00,46.9,45.5,30.17,NE,40,0.0,0.0,95,0.00,,,0.00,Wunderground v.1.15,2013-09-15 04:51:00,
2013-09-15 00:56:00,46.9,45.5,30.17,NE,40,0.0,0.0,95,0.00,,,0.00,Wunderground v.1.15,2013-09-15 04:56:00,
2013-09-15 01:02:00,46.9,45.5,30.17,NE,40,0.0,0.0,95,0.00,,,0.00,Wunderground v.1.15,2013-09-15 05:02:00,
2013-09-15 01:07:00,46.8,45.4,30.17,NE,40,0.0,0.0,95,0.00,,,0.00,Wunderground v.1.15,2013-09-15 05:07:00,
2013-09-15 01:12:00,46.6,45.2,30.17,NE,40,0.0,0.0,95,0.00,,,0.00,Wunderground v.1.15,2013-09-15 05:12:00,
2013-09-15 01:18:00,46.5,45.1,30.17,NE,40,0.0,0.0,95,0.00,,,0.00,Wunderground v.1.15,2013-09-15 05:18:00,
2013-09-15 01:23:00,46.4,45.0,30.17,NE,40,0.0,0.0,95,0.00,,,0.00,Wunderground v.1.15,2013-09-15 05:23:00,
2013-09-15 01:28:00,46.3,44.9,30.17,NE,40,0.0,0.0,95,0.00,,,0.00,Wunderground v.1.15,2013-09-15 05:28:00,
2013-09-15 01:33:00,46.2,44.8,30.17,NE,40,0.0,0.0,95,0.00,,,0.00,Wunderground v.1.15,2013-09-15 05:33:00,
2013-09-15 01:39:00,46.1,44.7,30.17,NE,40,0.0,0.0,95,0.00,,,0.00,Wunderground v.1.15,2013-09-15 05:39:00,
2013-09-15 01:44:00,46.0,44.6,30.17,NE,40,0.0,0.0,95,0.00,,,0.00,Wunderground v.1.15,2013-09-15 05:44:00,
2013-09-15 01:49:00,45.9,44.5,30.17,NE,40,0.0,0.0,95,0.00,,,0.00,Wunderground v.1.15,2013-09-15 05:49:00,
2013-09-15 01:55:00,45.9,44.5,30.17,NE,40,0.0,0.0,95,0.00,,,0.00,Wunderground v.1.15,2013-09-15 05:55:00,
2013-09-15 02:00:00,45.8,44.4,30.16,NE,40,0.0,0.0,95,0.00,,,0.00,Wunderground v.1.15,2013-09-15 06:00:00,
2013-09-15 02:06:00,45.8,44.4,30.16,NE,40,0.0,0.0,95,0.00,,,0.00,Wunderground v.1.15,2013-09-15 06:06:00,
2013-09-15 02:11:00,45.8,44.4,30.16,NE,40,0.0,0.0,95,0.00,,,0.00,Wunderground v.1.15,2013-09-15 06:11:00,
2013-09-15 02:16:00,45.8,44.4,30.16,NE,40,0.0,0.0,95,0.00,,,0.00,Wunderground v.1.15,2013-09-15 06:16:00,
2013-09-15 02:21:00,45.6,44.3,30.16,NE,40,0.0,0.0,95,0.00,,,0.00,Wunderground v.1.15,2013-09-15 06:21:00,
2013-09-15 02:26:00,45.5,44.2,30.16,NE,40,0.0,0.0,95,0.00,,,0.00,Wunderground v.1.15,2013-09-15 06:26:00,
2013-09-15 02:32:00,45.5,44.4,30.16,NE,40,0.0,0.0,96,0.00,,,0.00,Wunderground v.1.15,2013-09-15 06:32:00,
2013-09-15 02:37:00,45.5,44.4,30.16,NE,40,0.0,0.0,96,0.00,,,0.00,Wunderground v.1.15,2013-09-15 06:37:00,
2013-09-15 02:42:00,45.5,44.4,30.15,NE,40,0.0,0.0,96,0.00,,,0.00,Wunderground v.1.15,2013-09-15 06:42:00,
2013-09-15 02:48:00,45.5,44.4,30.15,NE,40,0.0,0.0,96,0.00,,,0.00,Wunderground v.1.15,2013-09-15 06:48:00,
2013-09-15 02:53:00,45.5,44.4,30.15,NE,40,0.0,0.0,96,0.00,,,0.00,Wunderground v.1.15,2013-09-15 06:53:00,
2013-09-15 02:58:00,45.6,44.5,30.14,NE,40,0.0,0.0,96,0.00,,,0.00,Wunderground v.1.15,2013-09-15 06:58:00,
2013-09-15 03:03:00,45.6,44.5,30.14,NE,40,0.0,0.0,96,0.00,,,0.00,Wunderground v.1.15,2013-09-15 07:03:00,
2013-09-15 03:09:00,45.6,44.5,30.14,NE,40,0.0,0.0,96,0.00,,,0.00,Wunderground v.1.15,2013-09-15 07:09:00,
2013-09-15 03:14:00,45.7,44.6,30.14,NE,40,0.0,0.0,96,0.00,,,0.00,Wunderground v.1.15,2013-09-15 07:14:00,
2013-09-15 03:19:00,45.8,44.7,30.15,NE,40,0.0,0.0,96,0.00,,,0.00,Wunderground v.1.15,2013-09-15 07:19:00,
2013-09-15 03:24:00,45.9,44.8,30.16,NE,40,0.0,0.0,96,0.00,,,0.00,Wunderground v.1.15,2013-09-15 07:24:00,
2013-09-15 03:30:00,46.0,44.9,30.15,NE,40,0.0,0.0,96,0.00,,,0.00,Wunderground v.1.15,2013-09-15 07:30:00,
2013-09-15 03:35:00,46.0,44.9,30.16,NE,40,0.0,0.0,96,0.00,,,0.00,Wunderground v.1.15,2013-09-15 07:35:00,
2013-09-15 03:40:00,46.0,44.9,30.15,NE,40,0.0,0.0,96,0.00,,,0.00,Wunderground v.1.15,2013-09-15 07:40:00,
2013-09-15 03:46:00,46.0,44.9,30.15,NE,40,0.0,0.0,96,0.00,,,0.00,Wunderground v.1.15,2013-09-15 07:46:00,
2013-09-15 03:51:00,46.0,44.9,30.15,NE,40,0.0,0.0,96,0.00,,,0.00,Wunderground v.1.15,2013-09-15 07:51:00,
2013-09-15 03:56:00,46.0,44.9,30.16,NE,40,0.0,0.0,96,0.00,,,0.00,Wunderground v.1.15,2013-09-15 07:56:00,
2013-09-15 04:02:00,45.9,44.8,30.16,NE,40,0.0,0.0,96,0.00,,,0.00,Wunderground v.1.15,2013-09-15 08:02:00,
2013-09-15 04:07:00,45.9,44.8,30.16,NE,40,0.0,0.0,96,0.00,,,0.00,Wunderground v.1.15,2013-09-15 08:07:00,
2013-09-15 04:12:00,45.7,44.6,30.16,NE,40,0.0,0.0,96,0.00,,,0.00,Wunderground v.1.15,2013-09-15 08:12:00,
2013-09-15 04:18:00,45.6,44.5,30.16,NE,40,0.0,0.0,96,0.00,,,0.00,Wunderground v.1.15,2013-09-15 08:18:00,
2013-09-15 04:24:00,45.4,44.3,30.16,NE,40,0.0,0.0,96,0.00,,,0.00,Wunderground v.1.15,2013-09-15 08:24:00,
2013-09-15 04:29:00,45.3,44.0,30.16,NE,40,0.0,0.0,95,0.00,,,0.00,Wunderground v.1.15,2013-09-15 08:29:00,
2013-09-15 04:34:00,45.2,44.1,30.16,NE,40,0.0,0.0,96,0.00,,,0.00,Wunderground v.1.15,2013-09-15 08:34:00,
2013-09-15 04:39:00,45.2,44.1,30.16,NE,40,0.0,0.0,96,0.00,,,0.00,Wunderground v.1.15,2013-09-15 08:39:00,
2013-09-15 04:44:00,45.1,44.0,30.17,NE,40,0.0,0.0,96,0.00,,,0.00,Wunderground v.1.15,2013-09-15 08:44:00,
2013-09-15 04:49:00,45.0,43.9,30.17,NE,40,0.0,0.0,96,0.00,,,0.00,Wunderground v.1.15,2013-09-15 08:49:00,
2013-09-15 04:55:00,44.8,43.7,30.17,NE,40,0.0,0.0,96,0.00,,,0.00,Wunderground v.1.15,2013-09-15 08:55:00,
2013-09-15 05:00:00,44.7,43.4,30.17,NE,40,0.0,0.0,95,0.00,,,0.00,Wunderground v.1.15,2013-09-15 09:00:00,
2013-09-15 05:06:00,44.6,43.5,30.17,NE,40,0.0,0.0,96,0.00,,,0.00,Wunderground v.1.15,2013-09-15 09:06:00,
2013-09-15 05:11:00,44.5,43.4,30.17,NE,40,0.0,0.0,96,0.00,,,0.00,Wunderground v.1.15,2013-09-15 09:11:00,
2013-09-15 05:16:00,44.5,43.4,30.17,NE,40,0.0,0.0,96,0.00,,,0.00,Wunderground v.1.15,2013-09-15 09:16:00,
2013-09-15 05:21:00,44.4,43.3,30.17,NE,40,0.0,0.0,96,0.00,,,0.00,Wunderground v.1.15,2013-09-15 09:21:00,
2013-09-15 05:27:00,44.3,43.2,30.17,NE,40,0.0,0.0,96,0.00,,,0.00,Wunderground v.1.15,2013-09-15 09:27:00,
2013-09-15 05:32:00,44.2,43.1,30.17,NE,40,0.0,0.0,96,0.00,,,0.00,Wunderground v.1.15,2013-09-15 09:32:00,
2013-09-15 05:37:00,44.2,43.1,30.17,NE,40,0.0,0.0,96,0.00,,,0.00,Wunderground v.1.15,2013-09-15 09:37:00,
2013-09-15 05:42:00,44.1,43.0,30.17,NE,40,0.0,0.0,96,0.00,,,0.00,Wunderground v.1.15,2013-09-15 09:42:00,
2013-09-15 05:48:00,44.0,42.9,30.18,NE,40,0.0,0.0,96,0.00,,,0.00,Wunderground v.1.15,2013-09-15 09:48:00,
2013-09-15 05:53:00,43.8,42.7,30.17,NE,40,0.0,0.0,96,0.00,,,0.00,Wunderground v.1.15,2013-09-15 09:53:00,
2013-09-15 05:58:00,43.8,42.7,30.18,NE,40,0.0,0.0,96,0.00,,,0.00,Wunderground v.1.15,2013-09-15 09:58:00,
2013-09-15 06:03:00,43.8,42.7,30.18,NE,40,0.0,0.0,96,0.00,,,0.00,Wunderground v.1.15,2013-09-15 10:03:00,
2013-09-15 06:09:00,43.7,42.6,30.18,NE,40,0.0,0.0,96,0.00,,,0.00,Wunderground v.1.15,2013-09-15 10:09:00,
2013-09-15 06:14:00,43.5,42.4,30.18,NE,40,0.0,0.0,96,0.00,,,0.00,Wunderground v.1.15,2013-09-15 10:14:00,
2013-09-15 06:19:00,43.4,42.3,30.18,NE,40,0.0,0.0,96,0.00,,,0.00,Wunderground v.1.15,2013-09-15 10:19:00,
2013-09-15 06:25:00,43.4,42.3,30.19,NE,40,0.0,0.0,96,0.00,,,0.00,Wunderground v.1.15,2013-09-15 10:25:00,
2013-09-15 06:30:00,43.3,42.2,30.19,NE,40,0.0,0.0,96,0.00,,,0.00,Wunderground v.1.15,2013-09-15 10:30:00,
2013-09-15 06:35:00,43.3,42.2,30.19,NE,40,0.0,0.0,96,0.00,,,0.00,Wunderground v.1.15,2013-09-15 10:35:00,
2013-09-15 06:40:00,43.3,42.2,30.19,NE,40,0.0,0.0,96,0.00,,,0.00,Wunderground v.1.15,2013-09-15 10:40:00,
2013-09-15 06:45:00,43.3,42.2,30.19,NE,40,0.0,0.0,96,0.00,,,0.00,Wunderground v.1.15,2013-09-15 10:45:00,
2013-09-15 06:50:00,43.3,42.2,30.19,NE,40,0.0,0.0,96,0.00,,,0.00,Wunderground v.1.15,2013-09-15 10:50:00,
2013-09-15 06:56:00,43.3,42.2,30.19,NE,40,0.0,0.0,96,0.00,,,0.00,Wunderground v.1.15,2013-09-15 10:56:00,
2013-09-15 07:02:00,43.3,42.2,30.19,NE,40,0.0,0.0,96,0.00,,,0.00,Wunderground v.1.15,2013-09-15 11:02:00,
2013-09-15 07:07:00,43.3,42.2,30.19,NE,40,0.0,0.0,96,0.00,,,0.00,Wunderground v.1.15,2013-09-15 11:07:00,
2013-09-15 07:12:00,43.2,42.1,30.19,NE,40,0.0,0.0,96,0.00,,,0.00,Wunderground v.1.15,2013-09-15 11:12:00,
2013-09-15 07:18:00,43.2,42.1,30.20,NE,40,0.0,0.0,96,0.00,,,0.00,Wunderground v.1.15,2013-09-15 11:18:00,
2013-09-15 07:23:00,43.2,42.1,30.19,NE,40,0.0,0.0,96,0.00,,,0.00,Wunderground v.1.15,2013-09-15 11:23:00,
2013-09-15 07:28:00,43.2,42.1,30.19,NE,40,0.0,0.0,96,0.00,,,0.00,Wunderground v.1.15,2013-09-15 11:28:00,
2013-09-15 07:33:00,43.4,42.3,30.19,NE,40,0.0,0.0,96,0.00,,,0.00,Wunderground v.1.15,2013-09-15 11:33:00,
2013-09-15 07:39:00,43.6,42.5,30.20,NE,40,0.0,0.0,96,0.00,,,0.00,Wunderground v.1.15,2013-09-15 11:39:00,
2013-09-15 07:44:00,43.8,42.7,30.20,NE,40,0.0,0.0,96,0.00,,,0.00,Wunderground v.1.15,2013-09-15 11:44:00,
2013-09-15 07:49:00,44.1,43.3,30.20,NE,40,0.0,0.0,97,0.00,,,0.00,Wunderground v.1.15,2013-09-15 11:49:00,
2013-09-15 07:54:00,44.3,43.5,30.20,NE,40,0.0,0.0,97,0.00,,,0.00,Wunderground v.1.15,2013-09-15 11:54:00,
2013-09-15 07:59:00,44.6,43.5,30.20,NE,40,0.0,0.0,96,0.00,,,0.00,Wunderground v.1.15,2013-09-15 11:59:00,
2013-09-15 08:05:00,44.9,44.1,30.21,NE,40,0.0,0.0,97,0.00,,,0.00,Wunderground v.1.15,2013-09-15 12:05:00,
2013-09-15 08:11:00,45.3,44.5,30.21,NE,40,0.0,0.0,97,0.00,,,0.00,Wunderground v.1.15,2013-09-15 12:11:00,
2013-09-15 08:16:00,45.6,44.8,30.21,NE,40,0.0,0.0,97,0.00,,,0.00,Wunderground v.1.15,2013-09-15 12:16:00,
2013-09-15 08:22:00,46.1,45.3,30.21,NE,40,0.0,0.0,97,0.00,,,0.00,Wunderground v.1.15,2013-09-15 12:22:00,
2013-09-15 08:27:00,46.5,45.7,30.21,NE,40,0.0,0.0,97,0.00,,,0.00,Wunderground v.1.15,2013-09-15 12:27:00,
2013-09-15 08:32:00,47.2,46.4,30.21,NE,40,0.0,0.0,97,0.00,,,0.00,Wunderground v.1.15,2013-09-15 12:32:00,
2013-09-15 08:38:00,48.3,47.5,30.21,NE,40,0.0,0.0,97,0.00,,,0.00,Wunderground v.1.15,2013-09-15 12:38:00,
2013-09-15 08:43:00,48.8,48.0,30.21,NE,40,0.0,0.0,97,0.00,,,0.00,Wunderground v.1.15,2013-09-15 12:43:00,
2013-09-15 08:48:00,49.4,48.6,30.21,NE,40,0.0,0.0,97,0.00,,,0.00,Wunderground v.1.15,2013-09-15 12:48:00,
2013-09-15 08:53:00,49.9,49.1,30.21,NE,40,0.0,0.0,97,0.00,,,0.00,Wunderground v.1.15,2013-09-15 12:53:00,
2013-09-15 08:58:00,50.3,49.5,30.21,NE,40,0.0,0.0,97,0.00,,,0.00,Wunderground v.1.15,2013-09-15 12:58:00,
2013-09-15 09:04:00,51.0,50.2,30.21,NE,40,0.0,0.0,97,0.00,,,0.00,Wunderground v.1.15,2013-09-15 13:04:00,
2013-09-15 09:09:00,51.6,50.5,30.21,NE,40,0.0,1.0,96,0.00,,,0.00,Wunderground v.1.15,2013-09-15 13:09:00,
2013-09-15 09:14:00,52.4,50.7,30.21,East,97,0.0,2.0,94,0.00,,,0.00,Wunderground v.1.15,2013-09-15 13:14:00,
2013-09-15 09:19:00,53.1,51.1,30.21,East,97,1.0,2.0,93,0.00,,,0.00,Wunderground v.1.15,2013-09-15 13:19:00,
2013-09-15 09:25:00,53.7,51.1,30.21,East,97,1.0,2.0,91,0.00,,,0.00,Wunderground v.1.15,2013-09-15 13:25:00,
2013-09-15 09:30:00,54.1,51.2,30.21,East,97,1.0,1.0,90,0.00,,,0.00,Wunderground v.1.15,2013-09-15 13:30:00,
2013-09-15 09:35:00,54.6,51.4,30.21,East,97,0.0,1.0,89,0.00,,,0.00,Wunderground v.1.15,2013-09-15 13:35:00,
2013-09-15 09:40:00,55.4,52.2,30.21,East,98,0.0,1.0,89,0.00,,,0.00,Wunderground v.1.15,2013-09-15 13:40:00,
2013-09-15 09:45:00,56.3,52.8,30.21,East,100,0.0,1.0,88,0.00,,,0.00,Wunderground v.1.15,2013-09-15 13:45:00,
2013-09-15 09:50:00,56.9,52.4,30.21,SE,142,1.0,1.0,85,0.00,,,0.00,Wunderground v.1.15,2013-09-15 13:50:00,
2013-09-15 09:55:00,57.4,52.9,30.21,SE,128,0.0,1.0,85,0.00,,,0.00,Wunderground v.1.15,2013-09-15 13:55:00,
2013-09-15 10:01:00,58.0,52.2,30.21,South,190,1.0,2.0,81,0.00,,,0.00,Wunderground v.1.15,2013-09-15 14:01:00,
2013-09-15 10:06:00,58.3,52.2,30.21,SSE,159,1.0,2.0,80,0.00,,,0.00,Wunderground v.1.15,2013-09-15 14:06:00,
2013-09-15 10:11:00,58.7,51.2,30.21,ESE,117,1.0,2.0,76,0.00,,,0.00,Wunderground v.1.15,2013-09-15 14:11:00,
2013-09-15 10:16:00,58.6,50.7,30.21,South,170,1.0,4.0,75,0.00,,,0.00,Wunderground v.1.15,2013-09-15 14:16:00,
2013-09-15 10:21:00,58.5,51.3,30.20,SSE,161,1.0,1.0,77,0.00,,,0.00,Wunderground v.1.15,2013-09-15 14:21:00,
2013-09-15 10:26:00,59.0,51.4,30.20,SE,131,1.0,2.0,76,0.00,,,0.00,Wunderground v.1.15,2013-09-15 14:26:00,
2013-09-15 10:32:00,59.5,50.8,30.20,SE,131,1.0,1.0,73,0.00,,,0.00,Wunderground v.1.15,2013-09-15 14:32:00,
2013-09-15 10:37:00,60.1,51.4,30.20,ESE,121,0.0,1.0,73,0.00,,,0.00,Wunderground v.1.15,2013-09-15 14:37:00,
2013-09-15 10:42:00,60.5,51.8,30.20,ESE,114,1.0,1.0,73,0.00,,,0.00,Wunderground v.1.15,2013-09-15 14:42:00,
2013-09-15 10:48:00,61.2,52.1,30.20,SE,128,1.0,1.0,72,0.00,,,0.00,Wunderground v.1.15,2013-09-15 14:48:00,
2013-09-15 10:53:00,61.5,50.8,30.19,ESE,120,1.0,2.0,68,0.00,,,0.00,Wunderground v.1.15,2013-09-15 14:53:00,
2013-09-15 10:58:00,62.0,51.3,30.20,ESE,112,1.0,2.0,68,0.00,,,0.00,Wunderground v.1.15,2013-09-15 14:58:00,
2013-09-15 11:03:00,62.4,51.7,30.20,ESE,117,1.0,2.0,68,0.00,,,0.00,Wunderground v.1.15,2013-09-15 15:03:00,
2013-09-15 11:08:00,62.6,49.8,30.19,SE,136,1.0,4.0,63,0.00,,,0.00,Wunderground v.1.15,2013-09-15 15:08:00,
2013-09-15 11:14:00,62.6,50.7,30.19,SSW,195,1.0,4.0,65,0.00,,,0.00,Wunderground v.1.15,2013-09-15 15:14:00,
2013-09-15 11:19:00,62.8,51.3,30.19,SE,142,1.0,4.0,66,0.00,,,0.00,Wunderground v.1.15,2013-09-15 15:19:00,
2013-09-15 11:24:00,63.0,51.5,30.19,SSE,149,1.0,4.0,66,0.00,,,0.00,Wunderground v.1.15,2013-09-15 15:24:00,
2013-09-15 11:30:00,63.4,50.6,30.19,ESE,123,2.0,2.0,63,0.00,,,0.00,Wunderground v.1.15,2013-09-15 15:30:00,
2013-09-15 11:35:00,63.6,51.6,30.19,ESE,122,1.0,4.0,65,0.00,,,0.00,Wunderground v.1.15,2013-09-15 15:35:00,
2013-09-15 11:40:00,63.7,50.9,30.18,SE,132,1.0,3.0,63,0.00,,,0.00,Wunderground v.1.15,2013-09-15 15:40:00,
2013-09-15 11:46:00,64.0,49.8,30.18,ESE,117,1.0,3.0,60,0.00,,,0.00,Wunderground v.1.15,2013-09-15 15:46:00,
2013-09-15 11:51:00,64.1,51.7,30.18,SSE,163,1.0,1.0,64,0.00,,,0.00,Wunderground v.1.15,2013-09-15 15:51:00,
2013-09-15 11:56:00,64.0,49.8,30.18,SE,129,1.0,3.0,60,0.00,,,0.00,Wunderground v.1.15,2013-09-15 15:56:00,
2013-09-15 12:02:00,64.0,50.3,30.18,NNE,13,1.0,2.0,61,0.00,,,0.00,Wunderground v.1.15,2013-09-15 16:02:00,
2013-09-15 12:07:00,64.5,51.2,30.18,SSW,207,1.0,2.0,62,0.00,,,0.00,Wunderground v.1.15,2013-09-15 16:07:00,
2013-09-15 12:12:00,65.1,50.4,30.17,East,98,1.0,1.0,59,0.00,,,0.00,Wunderground v.1.15,2013-09-15 16:12:00,
2013-09-15 12:17:00,65.5,51.7,30.17,SE,135,1.0,4.0,61,0.00,,,0.00,Wunderground v.1.15,2013-09-15 16:17:00,
2013-09-15 12:22:00,65.7,51.9,30.17,East,88,1.0,1.0,61,0.00,,,0.00,Wunderground v.1.15,2013-09-15 16:22:00,
2013-09-15 12:27:00,66.0,52.2,30.17,South,189,1.0,2.0,61,0.00,,,0.00,Wunderground v.1.15,2013-09-15 16:27:00,
2013-09-15 12:33:00,66.0,52.6,30.17,ESE,123,1.0,3.0,62,0.00,,,0.00,Wunderground v.1.15,2013-09-15 16:33:00,
2013-09-15 12:38:00,65.9,51.6,30.17,ESE,109,1.0,3.0,60,0.00,,,0.00,Wunderground v.1.15,2013-09-15 16:38:00,
2013-09-15 12:43:00,66.1,51.8,30.16,SSE,150,1.0,1.0,60,0.00,,,0.00,Wunderground v.1.15,2013-09-15 16:43:00,
2013-09-15 12:48:00,66.2,50.5,30.16,SE,142,1.0,4.0,57,0.00,,,0.00,Wunderground v.1.15,2013-09-15 16:48:00,
2013-09-15 12:54:00,66.3,51.5,30.16,SE,128,1.0,2.0,59,0.00,,,0.00,Wunderground v.1.15,2013-09-15 16:54:00,
2013-09-15 12:59:00,66.6,52.7,30.16,SSE,163,1.0,2.0,61,0.00,,,0.00,Wunderground v.1.15,2013-09-15 16:59:00,
2013-09-15 13:04:00,66.7,52.8,30.15,ESE,110,1.0,3.0,61,0.00,,,0.00,Wunderground v.1.15,2013-09-15 17:04:00,
2013-09-15 13:10:00,66.6,51.8,30.15,East,92,2.0,2.0,59,0.00,,,0.00,Wunderground v.1.15,2013-09-15 17:10:00,
2013-09-15 13:15:00,66.7,52.8,30.15,ESE,109,1.0,4.0,61,0.00,,,0.00,Wunderground v.1.15,2013-09-15 17:15:00,
2013-09-15 13:20:00,66.9,53.5,30.15,ESE,119,1.0,3.0,62,0.00,,,0.00,Wunderground v.1.15,2013-09-15 17:20:00,
2013-09-15 13:25:00,67.1,53.2,30.15,SE,136,2.0,3.0,61,0.00,,,0.00,Wunderground v.1.15,2013-09-15 17:25:00,
2013-09-15 13:31:00,67.2,54.2,30.14,ENE,63,1.0,1.0,63,0.00,,,0.00,Wunderground v.1.15,2013-09-15 17:31:00,
2013-09-15 13:37:00,67.3,53.8,30.14,SSE,150,1.0,3.0,62,0.00,,,0.00,Wunderground v.1.15,2013-09-15 17:37:00,
2013-09-15 13:42:00,67.6,55.4,30.14,SSE,150,1.0,2.0,65,0.00,,,0.00,Wunderground v.1.15,2013-09-15 17:42:00,
2013-09-15 13:47:00,67.7,53.3,30.14,SE,126,1.0,3.0,60,0.00,,,0.00,Wunderground v.1.15,2013-09-15 17:47:00,
2013-09-15 13:53:00,68.1,55.0,30.14,ENE,61,1.0,1.0,63,0.00,,,0.00,Wunderground v.1.15,2013-09-15 17:53:00,
2013-09-15 13:58:00,68.2,53.8,30.14,NE,48,0.0,2.0,60,0.00,,,0.00,Wunderground v.1.15,2013-09-15 17:58:00,
2013-09-15 14:03:00,68.2,52.9,30.14,NNE,25,1.0,4.0,58,0.00,,,0.00,Wunderground v.1.15,2013-09-15 18:03:00,
2013-09-15 14:08:00,68.2,55.6,30.14,NNE,25,1.0,4.0,64,0.00,,,0.00,Wunderground v.1.15,2013-09-15 18:08:00,
2013-09-15 14:14:00,68.5,56.3,30.14,ENE,75,0.0,1.0,65,0.00,,,0.00,Wunderground v.1.15,2013-09-15 18:14:00,
2013-09-15 14:19:00,68.6,53.7,30.14,East,94,0.0,1.0,59,0.00,,,0.00,Wunderground v.1.15,2013-09-15 18:19:00,
2013-09-15 14:24:00,68.7,56.5,30.14,NE,44,0.0,1.0,65,0.00,,,0.00,Wunderground v.1.15,2013-09-15 18:24:00,
2013-09-15 14:29:00,68.8,55.2,30.13,ESE,109,0.0,2.0,62,0.00,,,0.00,Wunderground v.1.15,2013-09-15 18:29:00,
2013-09-15 14:35:00,68.9,55.3,30.13,SSE,148,1.0,4.0,62,0.00,,,0.00,Wunderground v.1.15,2013-09-15 18:35:00,
2013-09-15 14:40:00,69.0,54.5,30.13,ESE,120,0.0,1.0,60,0.00,,,0.00,Wunderground v.1.15,2013-09-15 18:40:00,
2013-09-15 14:45:00,68.9,54.4,30.13,East,92,0.0,2.0,60,0.00,,,0.00,Wunderground v.1.15,2013-09-15 18:45:00,
2013-09-15 14:50:00,68.8,55.2,30.13,ESE,108,1.0,2.0,62,0.00,,,0.00,Wunderground v.1.15,2013-09-15 18:50:00,
2013-09-15 14:56:00,68.8,54.8,30.13,ESE,113,1.0,2.0,61,0.00,,,0.00,Wunderground v.1.15,2013-09-15 18:56:00,
2013-09-15 15:02:00,68.7,54.3,30.13,SE,128,0.0,0.0,60,0.00,,,0.00,Wunderground v.1.15,2013-09-15 19:02:00,
2013-09-15 15:07:00,68.6,54.2,30.12,ENE,74,0.0,0.0,60,0.00,,,0.00,Wunderground v.1.15,2013-09-15 19:07:00,
2013-09-15 15:13:00,68.4,53.5,30.12,NE,46,0.0,2.0,59,0.00,,,0.00,Wunderground v.1.15,2013-09-15 19:13:00,
2013-09-15 15:18:00,68.3,54.8,30.12,ESE,118,0.0,4.0,62,0.00,,,0.00,Wunderground v.1.15,2013-09-15 19:18:00,
2013-09-15 15:22:00,68.3,53.9,30.12,ESE,123,0.0,1.0,60,0.00,,,0.00,Wunderground v.1.15,2013-09-15 19:22:00,
2013-09-15 15:27:00,68.4,56.6,30.11,ESE,123,0.0,1.0,66,0.00,,,0.00,Wunderground v.1.15,2013-09-15 19:27:00,
2013-09-15 15:32:00,68.4,55.7,30.11,East,97,0.0,2.0,64,0.00,,,0.00,Wunderground v.1.15,2013-09-15 19:32:00,
2013-09-15 15:37:00,68.4,57.0,30.11,East,87,0.0,2.0,67,0.00,,,0.00,Wunderground v.1.15,2013-09-15 19:37:00,
2013-09-15 15:43:00,68.3,56.9,30.11,East,88,0.0,0.0,67,0.00,,,0.00,Wunderground v.1.15,2013-09-15 19:43:00,
2013-09-15 15:48:00,68.4,57.4,30.11,SE,134,0.0,2.0,68,0.00,,,0.00,Wunderground v.1.15,2013-09-15 19:48:00,
2013-09-15 15:53:00,68.6,56.8,30.11,SSE,148,1.0,1.0,66,0.00,,,0.00,Wunderground v.1.15,2013-09-15 19:53:00,
2013-09-15 15:59:00,68.8,58.6,30.11,SE,125,0.0,1.0,70,0.00,,,0.00,Wunderground v.1.15,2013-09-15 19:59:00,
2013-09-15 16:04:00,68.8,56.6,30.10,ESE,121,0.0,1.0,65,0.00,,,0.00,Wunderground v.1.15,2013-09-15 20:04:00,
2013-09-15 16:09:00,68.8,57.0,30.10,East,85,0.0,2.0,66,0.00,,,0.00,Wunderground v.1.15,2013-09-15 20:09:00,
2013-09-15 16:15:00,68.7,58.5,30.10,East,85,0.0,0.0,70,0.00,,,0.00,Wunderground v.1.15,2013-09-15 20:15:00,
2013-09-15 16:20:00,68.6,56.8,30.09,SE,128,0.0,0.0,66,0.00,,,0.00,Wunderground v.1.15,2013-09-15 20:20:00,
2013-09-15 16:25:00,68.5,57.5,30.09,ENE,71,0.0,0.0,68,0.00,,,0.00,Wunderground v.1.15,2013-09-15 20:25:00,
2013-09-15 16:30:00,68.4,58.2,30.09,ENE,69,0.0,1.0,70,0.00,,,0.00,Wunderground v.1.15,2013-09-15 20:30:00,
2013-09-15 16:36:00,68.4,60.2,30.09,East,92,0.0,1.0,75,0.00,,,0.00,Wunderground v.1.15,2013-09-15 20:36:00,
2013-09-15 16:42:00,68.4,59.8,30.09,East,94,0.0,0.0,74,0.00,,,0.00,Wunderground v.1.15,2013-09-15 20:42:00,
2013-09-15 16:47:00,68.1,58.7,30.09,SSE,166,0.0,1.0,72,0.00,,,0.00,Wunderground v.1.15,2013-09-15 20:47:00,
2013-09-15 16:52:00,67.7,59.9,30.09,SE,128,0.0,1.0,76,0.00,,,0.00,Wunderground v.1.15,2013-09-15 20:52:00,
2013-09-15 16:58:00,67.5,57.8,30.09,SE,128,0.0,1.0,71,0.00,,,0.00,Wunderground v.1.15,2013-09-15 20:58:00,
2013-09-15 17:03:00,67.5,56.2,30.09,East,99,0.0,1.0,67,0.00,,,0.00,Wunderground v.1.15,2013-09-15 21:03:00,
2013-09-15 17:08:00,67.7,59.9,30.09,East,96,0.0,1.0,76,0.00,,,0.00,Wunderground v.1.15,2013-09-15 21:08:00,
2013-09-15 17:14:00,67.5,58.2,30.09,NE,56,0.0,4.0,72,0.00,,,0.00,Wunderground v.1.15,2013-09-15 21:14:00,
2013-09-15 17:19:00,67.4,60.3,30.09,NE,56,0.0,4.0,78,0.00,,,0.00,Wunderground v.1.15,2013-09-15 21:19:00,
2013-09-15 17:24:00,67.1,60.0,30.09,NE,56,0.0,0.0,78,0.00,,,0.00,Wunderground v.1.15,2013-09-15 21:24:00,
2013-09-15 17:30:00,67.0,59.9,30.08,ESE,117,0.0,0.0,78,0.00,,,0.00,Wunderground v.1.15,2013-09-15 21:30:00,
2013-09-15 17:35:00,67.0,58.4,30.08,SE,129,1.0,1.0,74,0.00,,,0.00,Wunderground v.1.15,2013-09-15 21:35:00,
2013-09-15 17:40:00,66.8,59.7,30.08,SE,129,0.0,0.0,78,0.00,,,0.00,Wunderground v.1.15,2013-09-15 21:40:00,
2013-09-15 17:45:00,66.6,58.8,30.08,SE,129,0.0,0.0,76,0.00,,,0.00,Wunderground v.1.15,2013-09-15 21:45:00,
2013-09-15 17:51:00,66.5,59.8,30.08,SE,129,0.0,0.0,79,0.00,,,0.00,Wunderground v.1.15,2013-09-15 21:51:00,
2013-09-15 17:57:00,66.4,59.3,30.08,SE,129,0.0,0.0,78,0.00,,,0.00,Wunderground v.1.15,2013-09-15 21:57:00,
2013-09-15 18:02:00,66.3,58.9,30.08,ENE,63,0.0,0.0,77,0.00,,,0.00,Wunderground v.1.15,2013-09-15 22:02:00,
2013-09-15 18:08:00,66.1,58.3,30.08,ENE,63,0.0,1.0,76,0.00,,,0.00,Wunderground v.1.15,2013-09-15 22:08:00,
2013-09-15 18:13:00,65.9,58.8,30.08,ENE,74,0.0,0.0,78,0.00,,,0.00,Wunderground v.1.15,2013-09-15 22:13:00,
2013-09-15 18:18:00,65.5,58.5,30.08,ENE,74,0.0,0.0,78,0.00,,,0.00,Wunderground v.1.15,2013-09-15 22:18:00,
2013-09-15 18:23:00,65.2,58.2,30.08,ENE,74,0.0,0.0,78,0.00,,,0.00,Wunderground v.1.15,2013-09-15 22:23:00,
2013-09-15 18:29:00,64.8,58.8,30.08,ENE,74,0.0,0.0,81,0.00,,,0.00,Wunderground v.1.15,2013-09-15 22:29:00,
2013-09-15 18:34:00,64.6,58.6,30.08,ENE,74,0.0,0.0,81,0.00,,,0.00,Wunderground v.1.15,2013-09-15 22:34:00,
2013-09-15 18:39:00,64.4,58.4,30.08,ENE,74,0.0,0.0,81,0.00,,,0.00,Wunderground v.1.15,2013-09-15 22:39:00,
2013-09-15 18:44:00,64.1,57.8,30.08,ENE,74,0.0,0.0,80,0.00,,,0.00,Wunderground v.1.15,2013-09-15 22:44:00,
2013-09-15 18:50:00,63.8,58.2,30.08,ENE,74,0.0,0.0,82,0.00,,,0.00,Wunderground v.1.15,2013-09-15 22:50:00,
2013-09-15 18:55:00,63.6,58.0,30.08,ENE,74,0.0,0.0,82,0.00,,,0.00,Wunderground v.1.15,2013-09-15 22:55:00,
2013-09-15 19:00:00,63.2,57.3,30.08,ENE,74,0.0,0.0,81,0.00,,,0.00,Wunderground v.1.15,2013-09-15 23:00:00,
2013-09-15 19:06:00,62.9,57.7,30.08,ENE,74,0.0,0.0,83,0.00,,,0.00,Wunderground v.1.15,2013-09-15 23:06:00,
2013-09-15 19:12:00,62.5,57.3,30.08,ENE,74,0.0,0.0,83,0.00,,,0.00,Wunderground v.1.15,2013-09-15 23:12:00,
2013-09-15 19:17:00,62.2,56.6,30.08,ENE,74,0.0,0.0,82,0.00,,,0.00,Wunderground v.1.15,2013-09-15 23:17:00,
2013-09-15 19:22:00,61.8,56.6,30.08,ENE,74,0.0,0.0,83,0.00,,,0.00,Wunderground v.1.15,2013-09-15 23:22:00,
2013-09-15 19:27:00,61.6,56.7,30.08,ENE,74,0.0,0.0,84,0.00,,,0.00,Wunderground v.1.15,2013-09-15 23:27:00,
2013-09-15 19:33:00,61.4,56.5,30.07,ENE,74,0.0,0.0,84,0.00,,,0.00,Wunderground v.1.15,2013-09-15 23:33:00,
2013-09-15 19:38:00,61.2,56.0,30.08,ENE,74,0.0,0.0,83,0.00,,,0.00,Wunderground v.1.15,2013-09-15 23:38:00,
2013-09-15 19:43:00,61.0,56.1,30.07,ENE,74,0.0,0.0,84,0.00,,,0.00,Wunderground v.1.15,2013-09-15 23:43:00,
2013-09-15 19:48:00,60.9,56.4,30.07,ENE,74,0.0,0.0,85,0.00,,,0.00,Wunderground v.1.15,2013-09-15 23:48:00,
2013-09-15 19:53:00,60.8,56.3,30.07,ENE,74,0.0,0.0,85,0.00,,,0.00,Wunderground v.1.15,2013-09-15 23:53:00,
2013-09-15 19:58:00,60.6,56.4,30.07,ENE,74,0.0,0.0,86,0.00,,,0.00,Wunderground v.1.15,2013-09-15 23:58:00,
2013-09-15 20:04:00,60.4,56.5,30.08,ENE,74,0.0,0.0,87,0.00,,,0.00,Wunderground v.1.15,2013-09-16 00:04:00,
2013-09-15 20:09:00,60.3,56.1,30.08,ENE,74,0.0,0.0,86,0.00,,,0.00,Wunderground v.1.15,2013-09-16 00:09:00,
2013-09-15 20:14:00,60.1,55.9,30.08,ENE,74,0.0,0.0,86,0.00,,,0.00,Wunderground v.1.15,2013-09-16 00:14:00,
2013-09-15 20:19:00,60.1,56.5,30.07,ENE,74,0.0,0.0,88,0.00,,,0.00,Wunderground v.1.15,2013-09-16 00:19:00,
2013-09-15 20:25:00,59.9,56.3,30.08,ENE,74,0.0,0.0,88,0.00,,,0.00,Wunderground v.1.15,2013-09-16 00:25:00,
2013-09-15 20:30:00,59.8,56.2,30.08,ENE,74,0.0,0.0,88,0.00,,,0.00,Wunderground v.1.15,2013-09-16 00:30:00,
2013-09-15 20:35:00,59.8,56.2,30.08,ENE,74,0.0,0.0,88,0.00,,,0.00,Wunderground v.1.15,2013-09-16 00:35:00,
2013-09-15 20:41:00,59.7,56.1,30.08,ENE,74,0.0,0.0,88,0.00,,,0.00,Wunderground v.1.15,2013-09-16 00:41:00,
2013-09-15 20:47:00,59.5,55.6,30.09,ENE,74,0.0,0.0,87,0.00,,,0.00,Wunderground v.1.15,2013-09-16 00:47:00,
2013-09-15 20:52:00,59.4,55.5,30.09,ENE,74,0.0,0.0,87,0.00,,,0.00,Wunderground v.1.15,2013-09-16 00:52:00,
2013-09-15 20:57:00,59.3,55.4,30.09,ENE,74,0.0,0.0,87,0.00,,,0.00,Wunderground v.1.15,2013-09-16 00:57:00,
2013-09-15 21:03:00,59.3,56.1,30.10,ENE,74,0.0,0.0,89,0.00,,,0.00,Wunderground v.1.15,2013-09-16 01:03:00,
2013-09-15 21:08:00,59.1,55.9,30.10,ENE,74,0.0,0.0,89,0.00,,,0.00,Wunderground v.1.15,2013-09-16 01:08:00,
2013-09-15 21:13:00,59.1,56.2,30.10,ENE,74,0.0,0.0,90,0.00,,,0.00,Wunderground v.1.15,2013-09-16 01:13:00,
2013-09-15 21:19:00,59.0,55.8,30.10,ENE,74,0.0,0.0,89,0.00,,,0.00,Wunderground v.1.15,2013-09-16 01:19:00,
2013-09-15 21:24:00,59.0,56.1,30.10,ENE,74,0.0,0.0,90,0.00,,,0.00,Wunderground v.1.15,2013-09-16 01:24:00,
2013-09-15 21:29:00,58.9,55.7,30.10,ENE,74,0.0,0.0,89,0.00,,,0.00,Wunderground v.1.15,2013-09-16 01:29:00,
2013-09-15 21:35:00,58.9,56.0,30.10,ENE,74,0.0,0.0,90,0.00,,,0.00,Wunderground v.1.15,2013-09-16 01:35:00,
2013-09-15 21:40:00,58.9,56.3,30.10,ENE,74,0.0,0.0,91,0.00,,,0.00,Wunderground v.1.15,2013-09-16 01:40:00,
2013-09-15 21:46:00,58.9,56.3,30.09,ENE,74,0.0,0.0,91,0.00,,,0.00,Wunderground v.1.15,2013-09-16 01:46:00,
2013-09-15 21:51:00,58.9,56.3,30.09,ENE,74,0.0,0.0,91,0.00,,,0.00,Wunderground v.1.15,2013-09-16 01:51:00,
2013-09-15 21:57:00,58.8,56.2,30.09,ENE,74,0.0,0.0,91,0.00,,,0.00,Wunderground v.1.15,2013-09-16 01:57:00,
2013-09-15 22:02:00,58.8,56.2,30.09,ENE,74,0.0,0.0,91,0.00,,,0.00,Wunderground v.1.15,2013-09-16 02:02:00,
2013-09-15 22:07:00,58.7,56.1,30.09,ENE,74,0.0,0.0,91,0.00,,,0.00,Wunderground v.1.15,2013-09-16 02:07:00,
2013-09-15 22:13:00,58.6,56.0,30.09,ENE,74,0.0,0.0,91,0.00,,,0.00,Wunderground v.1.15,2013-09-16 02:13:00,
2013-09-15 22:18:00,58.6,56.0,30.09,ENE,74,0.0,0.0,91,0.00,,,0.00,Wunderground v.1.15,2013-09-16 02:18:00,
2013-09-15 22:23:00,58.4,55.5,30.09,ENE,74,0.0,0.0,90,0.00,,,0.00,Wunderground v.1.15,2013-09-16 02:23:00,
2013-09-15 22:29:00,58.2,55.6,30.09,ENE,74,0.0,0.0,91,0.00,,,0.00,Wunderground v.1.15,2013-09-16 02:29:00,
2013-09-15 22:34:00,58.1,55.5,30.09,ENE,74,0.0,0.0,91,0.00,,,0.00,Wunderground v.1.15,2013-09-16 02:34:00,
2013-09-15 22:39:00,58.1,55.8,30.09,ENE,74,0.0,0.0,92,0.00,,,0.00,Wunderground v.1.15,2013-09-16 02:39:00,
2013-09-15 22:45:00,58.0,55.7,30.09,ENE,74,0.0,0.0,92,0.00,,,0.00,Wunderground v.1.15,2013-09-16 02:45:00,
2013-09-15 22:50:00,58.0,55.7,30.09,ENE,74,0.0,0.0,92,0.00,,,0.00,Wunderground v.1.15,2013-09-16 02:50:00,
2013-09-15 22:56:00,57.8,55.5,30.08,ENE,74,0.0,0.0,92,0.00,,,0.00,Wunderground v.1.15,2013-09-16 02:56:00,
2013-09-15 23:02:00,57.7,55.4,30.09,ENE,74,0.0,0.0,92,0.00,,,0.00,Wunderground v.1.15,2013-09-16 03:02:00,
2013-09-15 23:07:00,57.6,55.3,30.08,ENE,74,0.0,0.0,92,0.00,,,0.00,Wunderground v.1.15,2013-09-16 03:07:00,
2013-09-15 23:12:00,57.5,55.2,30.09,ENE,74,0.0,0.0,92,0.00,,,0.00,Wunderground v.1.15,2013-09-16 03:12:00,
2013-09-15 23:17:00,57.5,55.5,30.09,ENE,74,0.0,0.0,93,0.00,,,0.00,Wunderground v.1.15,2013-09-16 03:17:00,
2013-09-15 23:23:00,57.5,55.5,30.08,ENE,74,0.0,0.0,93,0.00,,,0.00,Wunderground v.1.15,2013-09-16 03:23:00,
2013-09-15 23:28:00,57.5,55.5,30.08,ENE,74,0.0,0.0,93,0.00,,,0.00,Wunderground v.1.15,2013-09-16 03:28:00,
2013-09-15 23:33:00,57.5,55.5,30.08,ENE,74,0.0,0.0,93,0.00,,,0.00,Wunderground v.1.15,2013-09-16 03:33:00,
2013-09-15 23:39:00,57.6,55.6,30.08,ENE,74,0.0,0.0,93,0.00,,,0.00,Wunderground v.1.15,2013-09-16 03:39:00,
2013-09-15 23:44:00,57.7,55.7,30.08,ENE,74,0.0,0.0,93,0.00,,,0.00,Wunderground v.1.15,2013-09-16 03:44:00,
2013-09-15 23:49:00,57.8,55.8,30.08,ENE,74,0.0,0.0,93,0.00,,,0.00,Wunderground v.1.15,2013-09-16 03:49:00,
2013-09-15 23:55:00,57.8,55.8,30.08,ENE,74,0.0,0.0,93,0.00,,,0.00,Wunderground v.1.15,2013-09-16 03:55:00,